Solar

@SolarCity Solar Installation

System Results

37.0 MWh total power generated via @SolarCity as of 20170422
108.8 kWh day max on 20150523
0.0 kWh day min on 20170209
47.0 kWh average production

System Details

System size is 69 panels at 255W each = 17.6kW
System was turned on February 23, 2015 (25 months ago)
Panel info:
* Size: 1638 x 982 x 40mm (64.5 x 38.7 x 1.57in)
* Vendor: CanadianSolar CS6P-P
Inverter info:
* SolarEdge SE6000A

Sign up for SolarCity and save on electric!

Chart via PVOutput

Daily Log:

Date           Production  Daylight  Cloud Cover
20170421     11.3 kWh 13.6 hrs 94%
20170420     45.0 kWh 13.6 hrs 93%
20170419     40.5 kWh 13.6 hrs 49%
20170418     78.1 kWh 13.5 hrs 13%
20170417     51.5 kWh 13.5 hrs 8%
20170416     67.0 kWh 13.4 hrs 20%
20170415     62.9 kWh 13.4 hrs 13%
20170414     76.4 kWh 13.3 hrs 0%
20170413     70.6 kWh 13.3 hrs 10%
20170412     24.7 kWh 13.2 hrs 34%
20170411     60.7 kWh 13.2 hrs 0%
20170410     62.0 kWh 13.2 hrs 0%
20170409     73.5 kWh 13.1 hrs 0%
20170408     63.6 kWh 13.1 hrs 84%
20170407     18.6 kWh 13.0 hrs 86%
20170406     5.2 kWh 13.0 hrs 95%
20170405     27.4 kWh 12.9 hrs 93%
20170404     7.0 kWh 12.9 hrs 92%
20170403     63.6 kWh 12.8 hrs 5%
20170402     67.2 kWh 12.8 hrs 65%
20170401     16.1 kWh 12.7 hrs 69%
20170331     8.3 kWh 12.7 hrs 88%
20170330     58.4 kWh 12.6 hrs 6%
20170329     37.0 kWh 12.6 hrs 92%
20170328     10.1 kWh 12.5 hrs 82%
20170327     9.3 kWh 12.5 hrs 80%
20170326     22.3 kWh 12.4 hrs 48%
20170325     12.7 kWh 12.4 hrs 66%
20170324     14.6 kWh 12.3 hrs 77%
20170323     72.8 kWh 12.3 hrs 0%
20170322     74.3 kWh 12.3 hrs 9%
20170321     53.2 kWh 12.2 hrs 52%
20170320     62.4 kWh 12.2 hrs 0%
20170319     40.8 kWh 12.1 hrs 76%
20170318     53.5 kWh 12.1 hrs 16%
20170317     66.3 kWh 12.0 hrs 38%
20170316     36.8 kWh 12.0 hrs 0%
20170315     8.0 kWh 11.9 hrs 40%
20170314     0.0 kWh 11.9 hrs 65%
20170313     65.0 kWh 11.8 hrs 0%
20170312     53.4 kWh 11.8 hrs 0%
20170311     20.6 kWh 11.7 hrs 42%
20170310     0.1 kWh 11.7 hrs 89%
20170309     62.5 kWh 11.6 hrs 10%
20170308     51.6 kWh 11.6 hrs 72%
20170307     13.2 kWh 11.5 hrs 95%
20170306     57.2 kWh 11.5 hrs 0%
20170305     64.6 kWh 11.4 hrs 0%
20170304     54.1 kWh 11.4 hrs 26%
20170303     44.7 kWh 11.3 hrs 17%
20170302     62.3 kWh 11.3 hrs 25%
20170301     11.4 kWh 11.3 hrs 81%
20170228     31.0 kWh 11.2 hrs 74%
20170227     53.2 kWh 11.2 hrs 0%
20170226     55.0 kWh 11.1 hrs 50%
20170225     32.5 kWh 11.1 hrs 91%
20170224     53.0 kWh 11.0 hrs 21%
20170223     50.8 kWh 11.0 hrs 24%
20170222     47.1 kWh 10.9 hrs 21%
20170221     39.4 kWh 10.9 hrs 0%
20170220     54.7 kWh 10.8 hrs 10%
20170219     47.3 kWh 10.8 hrs 0%
20170218     43.0 kWh 10.7 hrs 7%
20170217     39.8 kWh 10.7 hrs 0%
20170216     20.7 kWh 10.7 hrs 63%
20170215     12.0 kWh 10.6 hrs 85%
20170214     36.0 kWh 10.6 hrs 0%
20170213     17.0 kWh 10.5 hrs 71%
20170212     0.0 kWh 10.5 hrs 72%
20170211     0.1 kWh 10.4 hrs 93%
20170210     12.9 kWh 10.4 hrs 9%
20170209     0.0 kWh 10.4 hrs 62%
20170208     31.9 kWh 10.3 hrs 52%
20170207     1.7 kWh 10.3 hrs 82%
20170206     39.7 kWh 10.2 hrs 39%
20170205     32.6 kWh 10.2 hrs 36%
20170204     46.1 kWh 10.1 hrs 5%
20170203     38.2 kWh 10.1 hrs 10%
20170202     28.1 kWh 10.1 hrs 28%
20170201     11.4 kWh 10.0 hrs 84%
20170131     10.6 kWh 10.0 hrs 46%
20170130     24.4 kWh 9.9 hrs 41%
20170129     24.3 kWh 9.9 hrs 65%
20170128     14.6 kWh 9.9 hrs 72%
20170127     16.4 kWh 9.8 hrs 90%
20170126     13.0 kWh 9.8 hrs 80%
20170125     34.6 kWh 9.8 hrs 58%
20170124     2.9 kWh 9.7 hrs 60%
20170123     10.1 kWh 9.7 hrs 99%
20170122     8.7 kWh 9.7 hrs 62%
20170121     30.4 kWh 9.6 hrs 50%
20170120     10.7 kWh 9.6 hrs 67%
20170119     18.7 kWh 9.6 hrs 78%
20170118     3.9 kWh 9.5 hrs 63%
20170117     12.9 kWh 9.5 hrs 45%
20170116     35.6 kWh 9.5 hrs 0%
20170115     36.8 kWh 9.4 hrs 10%
20170114     22.2 kWh 9.4 hrs 38%
20170113     36.2 kWh 9.4 hrs 1%
20170112     19.6 kWh 9.4 hrs 84%
20170111     25.1 kWh 9.3 hrs 42%
20170110     2.3 kWh 9.3 hrs 35%
20170109     0.0 kWh 9.3 hrs 1%
20170107     0.9 kWh 9.3 hrs 51%
20170106     7.2 kWh 9.2 hrs 56%
20170105     23.6 kWh 9.2 hrs 5%
20170104     11.5 kWh 9.2 hrs 87%
20170103     3.7 kWh 9.2 hrs 90%
20170102     9.1 kWh 9.2 hrs 42%
20170101     33.2 kWh 9.2 hrs 41%
20161231     11.0 kWh 9.1 hrs 40%
20161230     18.0 kWh 9.1 hrs 40%
20161229     3.4 kWh 9.1 hrs 57%
20161228     19.4 kWh 9.1 hrs 94%
20161227     18.8 kWh 9.1 hrs 66%
20161226     22.2 kWh 9.1 hrs 27%
20161225     32.2 kWh 9.1 hrs 0%
20161224     8.7 kWh 9.1 hrs 48%
20161223     27.3 kWh 9.1 hrs 12%
20161222     10.1 kWh 9.1 hrs 71%
20161221     20.3 kWh 9.1 hrs 0%
20161220     29.7 kWh 9.1 hrs 10%
20161219     25.5 kWh 9.1 hrs 0%
20161218     3.0 kWh 9.1 hrs 70%
20161217     0.0 kWh 9.1 hrs 84%
20161216     30.9 kWh 9.1 hrs 13%
20161215     27.4 kWh 9.1 hrs 16%
20161214     25.9 kWh 9.1 hrs 11%
20161213     25.0 kWh 9.1 hrs 13%
20161212     7.4 kWh 9.2 hrs 66%
20161211     19.7 kWh 9.2 hrs 50%
20161210     28.0 kWh 9.2 hrs 31%
20161209     29.1 kWh 9.2 hrs 21%
20161208     10.0 kWh 9.2 hrs 58%
20161207     10.9 kWh 9.2 hrs 80%
20161206     19.9 kWh 9.2 hrs 57%
20161205     4.9 kWh 9.3 hrs 58%
20161204     32.0 kWh 9.3 hrs 43%
20161203     15.9 kWh 9.3 hrs 27%
20161202     25.3 kWh 9.3 hrs 19%
20161201     22.9 kWh 9.3 hrs 50%
20161130     5.4 kWh 9.4 hrs 55%
20161129     2.0 kWh 9.4 hrs 83%
20161128     34.4 kWh 9.4 hrs 19%
20161127     23.4 kWh 9.4 hrs 13%
20161126     24.7 kWh 9.5 hrs 54%
20161125     4.2 kWh 9.5 hrs 86%
20161124     9.0 kWh 9.5 hrs 84%
20161123     34.6 kWh 9.5 hrs 21%
20161122     37.3 kWh 9.6 hrs 1%
20161121     21.1 kWh 9.6 hrs 55%
20161120     14.1 kWh 9.6 hrs 93%
20161119     35.2 kWh 9.7 hrs 23%
20161118     35.7 kWh 9.7 hrs 8%
20161117     20.0 kWh 9.7 hrs 44%
20161116     12.3 kWh 9.8 hrs 70%
20161115     5.2 kWh 9.8 hrs 71%
20161114     35.7 kWh 9.8 hrs 14%
20161113     39.8 kWh 9.9 hrs 10%
20161112     38.0 kWh 9.9 hrs 5%
20161111     40.6 kWh 9.9 hrs 12%
20161110     34.4 kWh 10.0 hrs 9%
20161109     11.2 kWh 10.0 hrs 45%
20161108     38.9 kWh 10.1 hrs 9%
20161107     42.0 kWh 10.1 hrs 3%
20161106     18.9 kWh 10.1 hrs 51%
20161105     23.6 kWh 10.2 hrs 39%
20161104     41.2 kWh 10.2 hrs 52%
20161103     14.1 kWh 10.3 hrs 38%
20161102     35.1 kWh 10.3 hrs 25%
20161101     41.7 kWh 10.3 hrs 6%
20161031     44.3 kWh 10.4 hrs 21%
20161030     18.5 kWh 10.4 hrs 34%
20161029     19.0 kWh 10.5 hrs 36%
20161028     16.2 kWh 10.5 hrs 94%
20161027     11.0 kWh 10.6 hrs 80%
20161026     37.9 kWh 10.6 hrs 49%
20161025     39.4 kWh 10.6 hrs 25%
20161024     47.7 kWh 10.7 hrs 23%
20161023     49.4 kWh 10.7 hrs 4%
20161022     9.9 kWh 10.8 hrs 72%
20161021     15.1 kWh 10.8 hrs 86%
20161020     25.9 kWh 10.9 hrs 46%
20161019     45.6 kWh 10.9 hrs 33%
20161018     33.8 kWh 11.0 hrs 49%
20161017     29.5 kWh 11.0 hrs 40%
20161016     40.7 kWh 11.0 hrs 21%
20161015     47.4 kWh 11.1 hrs 3%
20161014     50.8 kWh 11.1 hrs 0%
20161013     31.6 kWh 11.2 hrs 43%
20161012     48.6 kWh 11.2 hrs 18%
20161011     50.1 kWh 11.3 hrs 5%
20161010     54.4 kWh 11.3 hrs 0%
20161009     2.1 kWh 11.4 hrs 81%
20161008     20.5 kWh 11.4 hrs 70%
20161007     50.8 kWh 11.5 hrs 9%
20161006     52.3 kWh 11.5 hrs 1%
20161005     53.6 kWh 11.5 hrs 11%
20161004     31.8 kWh 11.6 hrs 44%
20161003     33.5 kWh 11.6 hrs 62%
20161002     11.8 kWh 11.7 hrs 93%
20161001     10.3 kWh 11.7 hrs 95%
20160930     10.7 kWh 11.8 hrs 91%
20160929     42.8 kWh 11.8 hrs 92%
20160928     9.3 kWh 11.9 hrs 93%
20160927     37.2 kWh 11.9 hrs 59%
20160926     53.0 kWh 12.0 hrs 1%
20160925     60.3 kWh 12.0 hrs 0%
20160924     51.2 kWh 12.1 hrs 38%
20160923     40.7 kWh 12.1 hrs 9%
20160922     54.3 kWh 12.2 hrs 11%
20160921     43.0 kWh 12.2 hrs 8%
20160920     44.3 kWh 12.3 hrs 36%
20160919     8.1 kWh 12.3 hrs 64%
20160918     22.8 kWh 12.3 hrs 72%
20160917     57.0 kWh 12.4 hrs 38%
20160916     50.1 kWh 12.4 hrs 22%
20160915     56.8 kWh 12.5 hrs 21%
20160914     50.0 kWh 12.5 hrs 8%
20160913     60.9 kWh 12.6 hrs 8%
20160912     62.1 kWh 12.6 hrs 0%
20160911     53.1 kWh 12.7 hrs 41%
20160910     44.5 kWh 12.7 hrs 43%
20160909     55.8 kWh 12.8 hrs 28%
20160908     45.2 kWh 12.8 hrs 53%
20160907     23.5 kWh 12.9 hrs 61%
20160906     14.8 kWh 12.9 hrs 93%
20160905     52.8 kWh 12.9 hrs 50%
20160904     62.2 kWh 13.0 hrs 39%
20160903     45.3 kWh 13.0 hrs 40%
20160902     47.7 kWh 13.1 hrs 21%
20160901     18.5 kWh 13.1 hrs 55%
20160831     29.5 kWh 13.2 hrs 62%
20160830     64.7 kWh 13.2 hrs 22%
20160829     66.3 kWh 13.3 hrs 13%
20160828     63.7 kWh 13.3 hrs 17%
20160827     61.2 kWh 13.4 hrs 9%
20160826     57.2 kWh 13.4 hrs 33%
20160825     59.0 kWh 13.4 hrs 15%
20160824     65.6 kWh 13.5 hrs 0%
20160823     70.2 kWh 13.5 hrs 0%
20160822     73.4 kWh 13.6 hrs 31%
20160821     59.7 kWh 13.6 hrs 57%
20160820     49.5 kWh 13.7 hrs 47%
20160819     66.9 kWh 13.7 hrs 45%
20160818     69.2 kWh 13.7 hrs 9%
20160817     70.4 kWh 13.8 hrs 27%
20160816     40.1 kWh 13.8 hrs 62%
20160815     64.3 kWh 13.9 hrs 4%
20160814     58.3 kWh 13.9 hrs 40%
20160813     44.2 kWh 14.0 hrs 50%
20160812     42.5 kWh 14.0 hrs 25%
20160811     56.7 kWh 14.0 hrs 49%
20160810     22.6 kWh 14.1 hrs 81%
20160809     70.1 kWh 14.1 hrs 2%
20160808     73.5 kWh 14.2 hrs 9%
20160807     69.5 kWh 14.2 hrs 11%
20160806     50.2 kWh 14.2 hrs 26%
20160805     65.9 kWh 14.3 hrs 32%
20160804     75.4 kWh 14.3 hrs 0%
20160803     64.1 kWh 14.3 hrs 32%
20160802     38.4 kWh 14.4 hrs 42%
20160801     26.4 kWh 14.4 hrs 70%
20160731     21.4 kWh 14.5 hrs 69%
20160730     57.6 kWh 14.5 hrs 24%
20160729     54.0 kWh 14.5 hrs 49%
20160728     56.2 kWh 14.6 hrs 51%
20160727     65.9 kWh 14.6 hrs 16%
20160726     74.6 kWh 14.6 hrs 13%
20160725     52.2 kWh 14.7 hrs 6%
20160724     73.2 kWh 14.7 hrs 0%
20160723     73.4 kWh 14.7 hrs 7%
20160722     63.4 kWh 14.8 hrs 15%
20160721     75.1 kWh 14.8 hrs 0%
20160720     73.4 kWh 14.8 hrs 2%
20160719     77.9 kWh 14.8 hrs 24%
20160718     45.1 kWh 14.9 hrs 3%
20160717     67.6 kWh 14.9 hrs 18%
20160716     61.9 kWh 14.9 hrs 9%
20160715     66.5 kWh 15.0 hrs 29%
20160714     39.9 kWh 15.0 hrs 70%
20160713     76.5 kWh 15.0 hrs 1%
20160712     73.5 kWh 15.0 hrs 0%
20160711     57.8 kWh 15.0 hrs 56%
20160710     30.2 kWh 15.1 hrs 87%
20160709     13.9 kWh 15.1 hrs 92%
20160708     44.9 kWh 15.1 hrs 86%
20160707     43.3 kWh 15.1 hrs 12%
20160706     74.6 kWh 15.1 hrs 0%
20160705     62.0 kWh 15.2 hrs 63%
20160704     80.1 kWh 15.2 hrs 0%
20160703     70.3 kWh 15.2 hrs 6%
20160702     70.9 kWh 15.2 hrs 38%
20160701     44.8 kWh 15.2 hrs 35%
20160630     78.3 kWh 15.2 hrs 24%
20160629     67.4 kWh 15.2 hrs 64%
20160628     31.5 kWh 15.2 hrs 88%
20160627     59.5 kWh 15.3 hrs 0%
20160626     78.4 kWh 15.3 hrs 2%
20160625     79.3 kWh 15.3 hrs 2%
20160624     76.1 kWh 15.3 hrs 6%
20160623     63.7 kWh 15.3 hrs 20%
20160622     69.2 kWh 15.3 hrs 29%
20160621     79.9 kWh 15.3 hrs 8%
20160620     104.9 kWh 15.3 hrs 0%
20160619     101.8 kWh 15.3 hrs 4%
20160618     102.7 kWh 15.3 hrs 0%
20160617     101.6 kWh 15.3 hrs 11%
20160616     93.1 kWh 15.3 hrs 7%
20160615     98.8 kWh 15.3 hrs 21%
20160614     101.0 kWh 15.3 hrs 0%
20160613     69.6 kWh 15.2 hrs 43%
20160612     62.3 kWh 15.2 hrs 52%
20160611     30.9 kWh 15.2 hrs 46%
20160610     79.9 kWh 15.2 hrs 50%
20160609     68.5 kWh 15.2 hrs 60%
20160608     60.4 kWh 15.2 hrs 34%
20160607     68.1 kWh 15.2 hrs 28%
20160606     87.7 kWh 15.2 hrs 54%
20160605     21.6 kWh 15.1 hrs 83%
20160604     79.5 kWh 15.1 hrs 30%
20160603     38.0 kWh 15.1 hrs 99%
20160602     81.0 kWh 15.1 hrs 33%
20160601     82.8 kWh 15.1 hrs 3%
20160531     89.8 kWh 15.1 hrs 19%
20160530     43.7 kWh 15.0 hrs 71%
20160529     71.6 kWh 15.0 hrs 67%
20160528     73.2 kWh 15.0 hrs 6%
20160527     67.8 kWh 15.0 hrs 14%
20160526     66.4 kWh 14.9 hrs 5%
20160525     96.0 kWh 14.9 hrs 21%
20160524     28.5 kWh 14.9 hrs 100%
20160523     74.2 kWh 14.9 hrs 38%
20160522     60.4 kWh 14.8 hrs 89%
20160521     40.6 kWh 14.8 hrs 10%
20160520     89.7 kWh 14.8 hrs 8%
20160519     61.5 kWh 14.7 hrs 89%
20160518     101.7 kWh 14.7 hrs 5%
20160517     71.2 kWh 14.7 hrs 17%
20160516     108.7 kWh 14.6 hrs 34%
20160515     66.7 kWh 14.6 hrs 65%
20160514     81.3 kWh 14.6 hrs 6%
20160513     42.3 kWh 14.5 hrs 64%
20160512     97.7 kWh 14.5 hrs 0%
20160511     103.6 kWh 14.5 hrs 0%
20160510     86.4 kWh 14.4 hrs 0%
20160509     108.7 kWh 14.4 hrs 13%
20160508     56.2 kWh 14.4 hrs 73%
20160507     23.9 kWh 14.3 hrs 75%
20160506     41.8 kWh 14.3 hrs 99%
20160505     15.5 kWh 14.2 hrs 89%
20160504     16.9 kWh 14.2 hrs 100%
20160503     21.3 kWh 14.2 hrs 99%
20160502     16.5 kWh 14.1 hrs 82%
20160501     29.6 kWh 14.1 hrs 57%
20160430     72.1 kWh 14.0 hrs 53%
20160429     82.7 kWh 14.0 hrs 24%
20160428     79.4 kWh 14.0 hrs 0%
20160427     105.2 kWh 13.9 hrs 13%
20160426     9.7 kWh 13.9 hrs 99%
20160425     49.5 kWh 13.8 hrs 90%
20160424     98.3 kWh 13.8 hrs 0%
20160423     75.3 kWh 13.7 hrs 65%
20160422     66.6 kWh 13.7 hrs 58%
20160421     99.1 kWh 13.7 hrs 0%
20160420     102.1 kWh 13.6 hrs 3%
20160419     81.0 kWh 13.6 hrs 58%
20160418     83.9 kWh 13.5 hrs 16%
20160417     95.5 kWh 13.5 hrs 0%
20160416     99.5 kWh 13.4 hrs 0%
20160415     99.3 kWh 13.4 hrs 0%
20160414     98.7 kWh 13.3 hrs 1%
20160413     98.2 kWh 13.3 hrs 0%
20160412     23.2 kWh 13.3 hrs 74%
20160411     57.7 kWh 13.2 hrs 100%
20160410     99.8 kWh 13.2 hrs 5%
20160409     50.8 kWh 13.1 hrs 42%
20160408     49.0 kWh 13.1 hrs 81%
20160407     11.2 kWh 13.0 hrs 93%
20160406     70.9 kWh 13.0 hrs 14%
20160405     64.2 kWh 12.9 hrs 27%
20160404     0.0 kWh 12.9 hrs 69%
20160403     36.7 kWh 12.8 hrs 60%
20160402     13.9 kWh 12.8 hrs 83%
20160401     32.8 kWh 12.7 hrs 82%
20160331     71.1 kWh 12.7 hrs 6%
20160330     90.8 kWh 12.6 hrs 0%
20160329     85.4 kWh 12.6 hrs 24%
20160328     11.7 kWh 12.6 hrs 92%
20160327     77.4 kWh 12.5 hrs 61%
20160326     68.7 kWh 12.5 hrs 67%
20160325     17.8 kWh 12.4 hrs 84%
20160324     32.2 kWh 12.4 hrs 71%
20160323     40.6 kWh 12.3 hrs 73%
20160322     89.2 kWh 12.3 hrs 14%
20160321     59.5 kWh 12.2 hrs 73%
20160320     64.7 kWh 12.2 hrs 31%
20160319     88.1 kWh 12.1 hrs 1%
20160318     57.6 kWh 12.1 hrs 44%
20160317     62.7 kWh 12.0 hrs 54%
20160316     66.2 kWh 12.0 hrs 66%
20160315     15.7 kWh 11.9 hrs 95%
20160314     12.2 kWh 11.9 hrs 67%
20160313     103.9 kWh 11.8 hrs 0%
20160312     72.6 kWh 11.8 hrs 0%
20160311     74.1 kWh 11.7 hrs 56%
20160310     18.5 kWh 11.7 hrs 57%
20160309     72.9 kWh 11.6 hrs 14%
20160308     49.8 kWh 11.6 hrs 43%
20160307     49.8 kWh 11.5 hrs 31%
20160306     79.1 kWh 11.5 hrs 30%
20160305     58.5 kWh 11.5 hrs 38%
20160304     30.9 kWh 11.4 hrs 86%
20160303     78.1 kWh 11.4 hrs 0%
20160302     54.4 kWh 11.3 hrs 52%
20160301     68.5 kWh 11.3 hrs 15%
20160229     41.5 kWh 11.2 hrs 21%
20160228     64.3 kWh 11.2 hrs 5%
20160227     75.3 kWh 11.1 hrs 0%
20160226     76.7 kWh 11.1 hrs 23%
20160225     32.0 kWh 11.0 hrs 88%
20160224     7.1 kWh 11.0 hrs 57%
20160223     27.1 kWh 10.9 hrs 33%
20160222     24.8 kWh 10.9 hrs 24%
20160221     42.6 kWh 10.8 hrs 6%
20160220     56.5 kWh 10.8 hrs 56%
20160219     44.6 kWh 10.8 hrs 20%
20160218     69.4 kWh 10.7 hrs 0%
20160217     63.2 kWh 10.7 hrs 30%
20160216     14.7 kWh 10.6 hrs 80%
20160215     12.8 kWh 10.6 hrs 41%
20160214     41.6 kWh 10.5 hrs 5%
20160213     40.5 kWh 10.5 hrs 38%
20160212     24.5 kWh 10.4 hrs 23%
20160211     25.1 kWh 10.4 hrs 62%
20160210     7.6 kWh 10.4 hrs 82%
20160209     2.8 kWh 10.3 hrs 81%
20160208     0.7 kWh 10.3 hrs 93%
20160207     17.2 kWh 10.2 hrs 0%
20160206     0.0 kWh 10.2 hrs 0%
20160205     0.0 kWh 10.2 hrs 63%
20160204     18.5 kWh 10.1 hrs 80%
20160203     4.5 kWh 10.1 hrs 68%
20160202     56.0 kWh 10.0 hrs 0%
20160201     39.4 kWh 10.0 hrs 5%
20160131     45.5 kWh 10.0 hrs 16%
20160130     47.3 kWh 9.9 hrs 10%
20160129     19.4 kWh 9.9 hrs 73%
20160128     39.4 kWh 9.8 hrs 10%
20160127     35.4 kWh 9.8 hrs 59%
20160126     27.3 kWh 9.8 hrs 19%
20160125     26.2 kWh 9.7 hrs 23%
20160124     7.8 kWh 9.7 hrs 20%
20160123     2.1 kWh 9.7 hrs 73%
20160122     33.1 kWh 9.6 hrs 0%
20160121     52.1 kWh 9.6 hrs 6%
20160120     47.0 kWh 9.6 hrs 0%
20160119     26.4 kWh 9.5 hrs 5%
20160118     30.8 kWh 9.5 hrs 57%
20160117     10.9 kWh 9.5 hrs 38%
20160116     14.2 kWh 9.5 hrs 75%
20160115     19.4 kWh 9.4 hrs 81%
20160114     21.8 kWh 9.4 hrs 44%
20160113     6.4 kWh 9.4 hrs 34%
20160112     25.2 kWh 9.4 hrs 40%
20160111     41.0 kWh 9.3 hrs 25%
20160110     3.5 kWh 9.3 hrs 89%
20160109     16.9 kWh 9.3 hrs 83%
20160108     8.1 kWh 9.3 hrs 76%
20160107     35.0 kWh 9.2 hrs 0%
20160106     43.7 kWh 9.2 hrs 0%
20160105     42.1 kWh 9.2 hrs 0%
20160104     4.2 kWh 9.2 hrs 72%
20160103     34.5 kWh 9.2 hrs 24%
20160102     37.4 kWh 9.2 hrs 35%
20160101     8.9 kWh 9.2 hrs 88%
20151231     21.4 kWh 9.1 hrs 69%
20151230     3.4 kWh 9.1 hrs 77%
20151229     1.1 kWh 9.1 hrs 67%
20151228     21.0 kWh 9.1 hrs 26%
20151227     4.7 kWh 9.1 hrs 93%
20151226     13.7 kWh 9.1 hrs 44%
20151225     15.6 kWh 9.1 hrs 5%
20151224     6.1 kWh 9.1 hrs 67%
20151223     1.5 kWh 9.1 hrs 33%
20151222     4.3 kWh 9.1 hrs 85%
20151221     12.7 kWh 9.1 hrs 5%
20151220     38.5 kWh 9.1 hrs 0%
20151219     38.9 kWh 9.1 hrs 19%
20151218     4.9 kWh 9.1 hrs 79%
20151217     2.8 kWh 9.1 hrs 90%
20151216     25.0 kWh 9.1 hrs 41%
20151215     26.1 kWh 9.1 hrs 83%
20151214     5.4 kWh 9.1 hrs 82%
20151213     7.8 kWh 9.1 hrs 100%
20151212     32.2 kWh 9.1 hrs 14%
20151211     21.4 kWh 9.2 hrs 50%
20151210     19.0 kWh 9.2 hrs 67%
20151209     23.6 kWh 9.2 hrs 98%
20151208     7.5 kWh 9.2 hrs 95%
20151207     38.0 kWh 9.2 hrs 0%
20151206     40.9 kWh 9.2 hrs 0%
20151205     20.2 kWh 9.2 hrs 0%
20151204     31.2 kWh 9.3 hrs 36%
20151202     3.8 kWh 9.3 hrs 89%
20151201     9.0 kWh 9.3 hrs 55%
20151130     24.8 kWh 9.4 hrs 42%
20151129     45.1 kWh 9.4 hrs 10%
20151128     3.5 kWh 9.4 hrs 65%
20151127     33.9 kWh 9.4 hrs 47%
20151126     20.1 kWh 9.5 hrs 59%
20151125     44.3 kWh 9.5 hrs 0%
20151124     45.6 kWh 9.5 hrs 0%
20151123     49.2 kWh 9.5 hrs 9%
20151122     6.7 kWh 9.6 hrs 90%
20151121     48.0 kWh 9.6 hrs 0%
20151120     47.2 kWh 9.6 hrs 37%
20151119     5.0 kWh 9.7 hrs 94%
20151118     48.8 kWh 9.7 hrs 12%
20151117     50.2 kWh 9.7 hrs 0%
20151116     49.1 kWh 9.8 hrs 7%
20151115     35.0 kWh 9.8 hrs 0%
20151114     40.7 kWh 9.8 hrs 34%
20151113     34.0 kWh 9.9 hrs 40%
20151112     4.3 kWh 9.9 hrs 92%
20151111     5.8 kWh 10.0 hrs 94%
20151110     9.7 kWh 10.0 hrs 60%
20151109     50.4 kWh 10.0 hrs 0%
20151108     54.7 kWh 10.1 hrs 0%
20151107     20.2 kWh 10.1 hrs 2%
20151106     22.2 kWh 10.1 hrs 55%
20151105     27.9 kWh 10.2 hrs 48%
20151104     50.8 kWh 10.2 hrs 0%
20151103     52.2 kWh 10.3 hrs 0%
20151102     40.5 kWh 10.3 hrs 0%
20151101     15.9 kWh 10.4 hrs 50%
20151031     47.2 kWh 10.4 hrs 0%
20151030     56.4 kWh 10.4 hrs 12%
20151029     41.5 kWh 10.5 hrs 55%
20151028     12.0 kWh 10.5 hrs 60%
20151027     49.3 kWh 10.6 hrs 0%
20151026     58.8 kWh 10.6 hrs 0%
20151025     17.9 kWh 10.7 hrs 76%
20151024     17.1 kWh 10.7 hrs 48%
20151023     48.6 kWh 10.7 hrs 21%
20151022     36.5 kWh 10.8 hrs 46%
20151021     28.7 kWh 10.8 hrs 86%
20151020     50.5 kWh 10.9 hrs 60%
20151019     65.5 kWh 10.9 hrs 33%
20151018     31.7 kWh 11.0 hrs 12%
20151017     42.9 kWh 11.0 hrs 32%
20151016     55.2 kWh 11.1 hrs 25%
20151015     51.6 kWh 11.1 hrs 5%
20151014     30.2 kWh 11.2 hrs 21%
20151013     38.3 kWh 11.2 hrs 69%
20151012     60.7 kWh 11.3 hrs 2%
20151011     64.2 kWh 11.3 hrs 16%
20151010     61.8 kWh 11.4 hrs 4%
20151009     24.7 kWh 11.4 hrs 27%
20151008     62.8 kWh 11.4 hrs 52%
20151007     63.0 kWh 11.5 hrs 13%
20151006     64.5 kWh 11.5 hrs 3%
20151005     30.4 kWh 11.6 hrs 56%
20151004     50.6 kWh 11.6 hrs 48%
20151003     13.6 kWh 11.7 hrs 81%
20151002     12.7 kWh 11.7 hrs 82%
20151001     21.3 kWh 11.8 hrs 80%
20150930     14.9 kWh 11.8 hrs 82%
20150929     24.5 kWh 11.9 hrs 44%
20150928     28.3 kWh 11.9 hrs 24%
20150927     38.7 kWh 12.0 hrs 15%
20150926     34.7 kWh 12.0 hrs 37%
20150925     30.7 kWh 12.1 hrs 39%
20150924     31.8 kWh 12.1 hrs 2%
20150923     39.4 kWh 12.1 hrs 5%
20150922     32.8 kWh 12.2 hrs 9%
20150921     39.5 kWh 12.2 hrs 2%
20150920     41.2 kWh 12.3 hrs 18%
20150919     71.3 kWh 12.3 hrs 16%
20150918     69.8 kWh 12.4 hrs 5%
20150917     71.5 kWh 12.4 hrs 4%
20150916     70.6 kWh 12.5 hrs 3%
20150915     74.3 kWh 12.5 hrs 2%
20150914     45.1 kWh 12.6 hrs 73%
20150913     14.4 kWh 12.6 hrs 88%
20150912     51.2 kWh 12.6 hrs 36%
20150911     42.2 kWh 12.7 hrs 77%
20150910     17.3 kWh 12.7 hrs 80%
20150909     69.4 kWh 12.8 hrs 5%
20150908     68.4 kWh 12.8 hrs 0%
20150907     73.5 kWh 12.9 hrs 0%
20150906     76.9 kWh 12.9 hrs 0%
20150905     79.4 kWh 13.0 hrs 0%
20150904     70.8 kWh 13.0 hrs 59%
20150903     61.5 kWh 13.1 hrs 3%
20150902     74.8 kWh 13.1 hrs 0%
20150901     76.6 kWh 13.2 hrs 1%
20150831     61.0 kWh 13.2 hrs 15%
20150830     60.6 kWh 13.2 hrs 24%
20150829     75.9 kWh 13.3 hrs 0%
20150828     75.1 kWh 13.3 hrs 17%
20150827     73.3 kWh 13.4 hrs 36%
20150826     68.7 kWh 13.4 hrs 30%
20150825     65.7 kWh 13.5 hrs 53%
20150824     57.1 kWh 13.5 hrs 67%
20150823     22.0 kWh 13.6 hrs 88%
20150822     66.1 kWh 13.6 hrs 53%
20150821     61.5 kWh 13.6 hrs 96%
20150820     85.9 kWh 13.7 hrs 63%
20150819     81.4 kWh 13.7 hrs 18%
20150818     71.7 kWh 13.8 hrs 18%
20150817     71.9 kWh 13.8 hrs 6%
20150816     84.5 kWh 13.9 hrs 1%
20150815     76.2 kWh 13.9 hrs 24%
20150814     86.6 kWh 13.9 hrs 0%
20150813     86.8 kWh 14.0 hrs 0%
20150812     85.7 kWh 14.0 hrs 27%
20150811     12.3 kWh 14.1 hrs 100%
20150810     87.3 kWh 14.1 hrs 48%
20150809     67.8 kWh 14.1 hrs 25%
20150808     78.0 kWh 14.2 hrs 8%
20150807     84.8 kWh 14.2 hrs 20%
20150806     76.2 kWh 14.3 hrs 18%
20150805     86.8 kWh 14.3 hrs 15%
20150804     76.1 kWh 14.3 hrs 48%
20150803     88.3 kWh 14.4 hrs 2%
20150802     90.2 kWh 14.4 hrs 3%
20150801     80.3 kWh 14.5 hrs 23%
20150731     94.0 kWh 14.5 hrs 2%
20150730     56.2 kWh 14.5 hrs 36%
20150729     85.2 kWh 14.6 hrs 1%
20150728     76.6 kWh 14.6 hrs 41%
20150727     70.5 kWh 14.6 hrs 28%
20150726     55.0 kWh 14.7 hrs 80%
20150725     68.4 kWh 14.7 hrs 22%
20150724     56.1 kWh 14.7 hrs 37%
20150723     82.5 kWh 14.8 hrs 43%
20150722     94.7 kWh 14.8 hrs 23%
20150721     78.0 kWh 14.8 hrs 37%
20150720     87.2 kWh 14.8 hrs 14%
20150719     61.4 kWh 14.9 hrs 3%
20150718     33.4 kWh 14.9 hrs 86%
20150717     86.2 kWh 14.9 hrs 0%
20150716     96.3 kWh 14.9 hrs 5%
20150715     56.0 kWh 15.0 hrs 68%
20150714     56.6 kWh 15.0 hrs 69%
20150713     58.2 kWh 15.0 hrs 16%
20150712     91.3 kWh 15.0 hrs 0%
20150711     94.7 kWh 15.1 hrs 0%
20150710     86.1 kWh 15.1 hrs 52%
20150709     68.0 kWh 15.1 hrs 53%
20150708     67.0 kWh 15.1 hrs 23%
20150707     60.5 kWh 15.1 hrs 90%
20150706     86.4 kWh 15.2 hrs 2%
20150705     84.7 kWh 15.2 hrs 1%
20150704     48.4 kWh 15.2 hrs 75%
20150703     97.0 kWh 15.2 hrs 0%
20150702     70.0 kWh 15.2 hrs 1%
20150701     71.7 kWh 15.2 hrs 80%
20150630     1.6 kWh 15.2 hrs 32%
20150629     62.8 kWh 15.2 hrs 98%
20150628     19.3 kWh 15.2 hrs 100%
20150627     51.4 kWh 15.3 hrs 23%
20150626     90.0 kWh 15.3 hrs 64%
20150625     70.3 kWh 15.3 hrs 15%
20150624     99.8 kWh 15.3 hrs 20%
20150623     58.9 kWh 15.3 hrs 34%
20150622     90.7 kWh 15.3 hrs 28%
20150621     55.0 kWh 15.3 hrs 80%
20150620     61.5 kWh 15.3 hrs 68%
20150619     84.5 kWh 15.3 hrs 67%
20150618     91.8 kWh 15.3 hrs 20%
20150617     74.0 kWh 15.3 hrs 23%
20150616     37.1 kWh 15.3 hrs 94%
20150615     10.0 kWh 15.3 hrs 100%
20150614     92.0 kWh 15.2 hrs 2%
20150613     94.8 kWh 15.2 hrs 13%
20150612     88.9 kWh 15.2 hrs 18%
20150611     79.8 kWh 15.2 hrs 14%
20150610     144.3 kWh 15.2 hrs 13%
20150609     56.1 kWh 15.2 hrs 47%
20150608     71.5 kWh 15.2 hrs 35%
20150607     102.3 kWh 15.1 hrs 3%
20150606     64.2 kWh 15.1 hrs 16%
20150605     83.4 kWh 15.1 hrs 7%
20150604     97.3 kWh 15.1 hrs 20%
20150603     96.0 kWh 15.1 hrs 20%
20150602     19.9 kWh 15.1 hrs 100%
20150601     16.8 kWh 15.0 hrs 100%
20150531     26.4 kWh 15.0 hrs 29%
20150530     98.0 kWh 15.0 hrs 12%
20150529     80.2 kWh 15.0 hrs 18%
20150528     85.5 kWh 14.9 hrs 12%
20150527     92.8 kWh 14.9 hrs 19%
20150526     69.8 kWh 14.9 hrs 12%
20150525     55.5 kWh 14.9 hrs 6%
20150524     96.1 kWh 14.8 hrs 6%
20150523     108.8 kWh 14.8 hrs 2%
20150522     99.1 kWh 14.8 hrs 14%
20150521     92.2 kWh 14.8 hrs 13%
20150520     92.5 kWh 14.7 hrs 19%
20150519     48.3 kWh 14.7 hrs 48%
20150518     81.3 kWh 14.7 hrs 24%
20150517     72.5 kWh 14.6 hrs 20%
20150516     43.1 kWh 14.6 hrs 57%
20150515     76.7 kWh 14.6 hrs 3%
20150514     104.0 kWh 14.5 hrs 5%
20150513     76.2 kWh 14.5 hrs 23%
20150512     75.1 kWh 14.5 hrs 30%
20150511     63.5 kWh 14.4 hrs 19%
20150510     97.0 kWh 14.4 hrs 17%
20150509     88.6 kWh 14.3 hrs 23%
20150508     94.9 kWh 14.3 hrs 4%
20150507     99.4 kWh 14.3 hrs 4%
20150506     93.9 kWh 14.2 hrs 4%
20150505     55.0 kWh 14.2 hrs 27%
20150504     92.2 kWh 14.2 hrs 7%
20150503     72.1 kWh 14.1 hrs 16%
20150502     102.4 kWh 14.1 hrs 5%
20150501     50.1 kWh 14.0 hrs 41%
20150430     39.1 kWh 14.0 hrs 44%
20150429     59.1 kWh 13.9 hrs 14%
20150428     91.2 kWh 13.9 hrs 33%
20150427     41.5 kWh 13.9 hrs 75%
20150426     31.5 kWh 13.8 hrs 32%
20150425     83.0 kWh 13.8 hrs 12%
20150424     78.8 kWh 13.7 hrs 36%
20150423     38.0 kWh 13.7 hrs 24%
20150422     68.8 kWh 13.7 hrs 13%
20150421     52.8 kWh 13.6 hrs 35%
20150420     9.2 kWh 13.6 hrs 54%
20150419     90.5 kWh 13.5 hrs 3%
20150418     72.5 kWh 13.5 hrs 13%
20150417     42.1 kWh 13.4 hrs 58%
20150416     96.2 kWh 13.4 hrs 2%
20150415     100.1 kWh 13.3 hrs 6%
20150414     50.0 kWh 13.3 hrs 14%
20150413     92.2 kWh 13.2 hrs 3%
20150412     97.1 kWh 13.2 hrs 1%
20150411     101.6 kWh 13.2 hrs 13%
20150410     24.0 kWh 13.1 hrs 100%
20150409     15.8 kWh 13.1 hrs 100%
20150408     25.9 kWh 13.0 hrs 37%
20150407     19.0 kWh 13.0 hrs 100%
20150406     85.3 kWh 12.9 hrs 7%
20150405     39.8 kWh 12.9 hrs 20%
20150404     71.2 kWh 12.8 hrs 33%
20150403     19.7 kWh 12.8 hrs 36%
20150402     93.9 kWh 12.7 hrs 13%
20150401     61.4 kWh 12.7 hrs 4%
20150331     48.9 kWh 12.6 hrs 20%
20150330     16.9 kWh 12.6 hrs 41%
20150329     50.7 kWh 12.6 hrs 4%
20150328     16.9 kWh 12.5 hrs 100%
20150327     12.9 kWh 12.5 hrs 100%
20150326     20.0 kWh 12.4 hrs 65%
20150325     49.1 kWh 12.4 hrs 3%
20150324     58.7 kWh 12.3 hrs 4%
20150323     66.4 kWh 12.3 hrs 6%
20150322     66.2 kWh 12.2 hrs 6%
20150321     33.2 kWh 12.2 hrs 43%
20150320     20.3 kWh 12.1 hrs 16%
20150319     64.7 kWh 12.1 hrs 6%
20150318     56.9 kWh 12.0 hrs 9%
20150317     32.4 kWh 12.0 hrs 38%
20150316     48.0 kWh 11.9 hrs 5%
20150315     25.0 kWh 11.9 hrs 40%
20150314     6.6 kWh 11.8 hrs 100%
20150313     47.6 kWh 11.8 hrs 10%
20150312     61.2 kWh 11.7 hrs 5%
20150311     53.5 kWh 11.7 hrs 5%
20150310     30.8 kWh 11.7 hrs 2%
20150309     58.5 kWh 11.6 hrs 9%
20150308     37.3 kWh 11.6 hrs 33%
20150307     42.7 kWh 11.5 hrs 2%
20150306     49.8 kWh 11.5 hrs 3%
20150305     1.6 kWh 11.4 hrs 77%
20150304     12.7 kWh 11.4 hrs 27%
20150303     15.5 kWh 11.3 hrs 2%
20150302     6.0 kWh 11.3 hrs 26%
20150301     17.4 kWh 11.2 hrs 30%
20150228     44.9 kWh 11.2 hrs 4%
20150227     43.2 kWh 11.1 hrs 5%
20150226     11.2 kWh 11.1 hrs 47%
20150225     39.0 kWh 11.0 hrs 3%
20150224     38.8 kWh 11.0 hrs 4%

Sign up for SolarCity and save on electric!

Follow @TeslaLiving.

  • Note 1: Detailed generation tracking started 20150612.
  • Note 2: Cloud/Daylight data Powered by Forecast when SolarCity data missing.

5 thoughts on “Solar”

  1. How big is your solar array and what is your average daily kW production? I’m trying to figure out what you net after the car is charged. Thanks C.

Share your thoughts